Latest Weather Observations for Deniliquin

IDN60801

Issued at 9:02 pm EDT Friday 27 March 2015 (issued every 30 minutes, with the page automatically refreshed every 10 minutes)

About weather observations | Map of weather stations | Latest weather observations for NSW | Other Formats
Station Details ID: 074258 Name: DENILIQUIN AIRPORT AWS Lat: -35.56 Lon: 144.95 Height: 94.0 m
Data from the previous 72 hours. | See also: Recent months at Deniliquin
Date/Time
EDT
Temp
°C
App
Temp
°C
Dew
Point
Rel
Hum
%
Delta-T
°C
Wind Press
QNH
hPa
Press
MSL
hPa
Rain
since 9 am
mm
Dir
 
Spd
km/h
Gust
km/h
Spd
kts
Gust
kts
27/09:00pm 12.6 8.4 1.6 47 4.7 SW 13 13 7 7 1023.8 1023.5 0.0
27/08:30pm 13.6 9.4 1.9 45 5.1 SSW 13 13 7 7 1023.5 1023.2 0.0
27/08:00pm 15.3 11.2 2.1 41 5.8 SSW 13 17 7 9 1023.2 1022.9 0.0
27/07:30pm 17.0 12.5 2.2 37 6.7 SSW 15 17 8 9 1022.8 1022.5 0.0
27/07:00pm 18.7 13.2 2.1 33 7.6 SW 20 28 11 15 1022.6 1022.3 0.0
27/06:30pm 19.4 12.8 2.3 32 7.9 SW 26 35 14 19 1022.5 1022.2 0.0
27/06:00pm 20.3 14.9 2.2 30 8.4 SSW 20 28 11 15 1022.3 1022.0 0.0
27/05:30pm 20.5 14.3 2.3 30 8.5 SW 24 37 13 20 1022.3 1022.0 0.0
27/05:00pm 19.4 13.2 2.3 32 7.9 WSW 24 35 13 19 1022.5 1022.2 0.0
27/04:30pm 20.6 13.8 2.9 31 8.4 SW 28 35 15 19 1022.6 1022.3 0.0
27/04:00pm 21.0 15.1 3.7 32 8.3 WSW 24 37 13 20 1022.8 1022.5 0.0
27/03:30pm 19.6 13.2 3.3 34 7.7 WSW 26 35 14 19 1023.1 1022.8 0.0
27/03:00pm 19.1 12.1 4.1 37 7.1 SW 30 37 16 20 1023.3 1023.0 0.0
27/02:30pm 18.9 11.9 3.9 37 7.1 WSW 30 39 16 21 1023.6 1023.3 0.0
27/02:00pm 19.0 11.7 4.7 39 6.9 SW 32 44 17 24 1024.0 1023.7 0.0
27/01:30pm 19.7 13.3 5.0 38 7.1 SW 28 39 15 21 1024.4 1024.1 0.0
27/01:00pm 19.3 13.3 5.4 40 6.8 WSW 26 37 14 20 1024.7 1024.4 0.0
27/12:30pm 18.2 12.2 5.1 42 6.3 SW 26 41 14 22 1025.2 1025.0 0.0
27/12:00pm 18.1 12.1 5.3 43 6.2 WSW 26 39 14 21 1025.3 1025.1 0.0
27/11:30am 17.7 12.0 6.6 48 5.5 WSW 26 35 14 19 1025.5 1025.3 0.0
27/11:00am 16.3 10.6 6.7 53 4.7 WSW 26 39 14 21 1025.7 1025.5 0.0
27/10:30am 15.4 9.8 7.2 58 4.0 WSW 26 32 14 17 1025.7 1025.5 0.0
27/10:00am 14.1 9.3 7.4 64 3.3 WSW 22 30 12 16 1025.5 1025.3 0.0
27/09:30am 12.5 7.3 7.4 71 2.5 W 24 32 13 17 1025.3 1025.1 0.0
27/09:00am 11.1 6.3 7.2 77 1.9 W 22 28 12 15 1025.2 1025.0 0.0
27/08:30am 10.0 5.7 6.9 81 1.5 WNW 19 24 10 13 1025.0 1024.8 0.0
27/08:00am 9.0 5.4 6.6 85 1.1 WNW 15 20 8 11 1024.7 1024.4 0.0
27/07:30am 8.6 4.9 6.2 85 1.1 WNW 15 20 8 11 1024.4 1024.1 0.0
27/07:00am 8.8 5.1 6.1 83 1.2 WNW 15 22 8 12 1024.0 1023.7 0.0
27/06:30am 9.0 4.8 5.9 81 1.4 WNW 17 20 9 11 1023.7 1023.4 0.0
27/06:00am 9.2 5.0 5.9 80 1.5 WNW 17 20 9 11 1023.2 1022.9 0.0
27/05:30am 9.1 4.9 5.5 78 1.6 W 17 22 9 12 1023.1 1022.8 0.0
27/05:00am 9.3 5.0 5.3 76 1.8 WNW 17 22 9 12 1022.9 1022.6 0.0
27/04:30am 9.5 4.8 5.1 74 2.0 WNW 19 24 10 13 1023.0 1022.7 0.0
27/04:00am 9.6 5.2 5.0 73 2.1 W 17 20 9 11 1023.0 1022.7 0.0
27/03:30am 10.0 6.0 5.0 71 2.3 W 15 22 8 12 1023.1 1022.8 0.0
27/03:00am 10.3 6.3 5.1 70 2.4 WNW 15 20 8 11 1023.3 1023.0 0.0
27/02:30am 10.6 6.2 4.9 68 2.6 W 17 22 9 12 1023.4 1023.1 0.0
27/02:00am 10.9 6.4 4.1 63 3.0 W 17 24 9 13 1023.5 1023.2 0.0
27/01:30am 11.4 6.4 3.7 59 3.4 WNW 19 26 10 14 1023.3 1023.0 0.0
27/01:00am 11.7 6.7 3.5 57 3.6 W 19 26 10 14 1023.3 1023.0 0.0
27/12:30am 12.0 6.9 3.0 54 4.0 W 19 24 10 13 1023.6 1023.3 0.0
27/12:00am 12.2 7.0 2.6 52 4.2 W 19 24 10 13 1023.6 1023.3 0.0
 
Date/Time
EDT
Temp
°C
App
Temp
°C
Dew
Point
Rel
Hum
%
Delta-T
°C
Wind Press
QNH
hPa
Press
MSL
hPa
Rain
since 9 am
mm
Dir
 
Spd
km/h
Gust
km/h
Spd
kts
Gust
kts
26/11:30pm 12.7 7.5 2.3 49 4.5 W 19 22 10 12 1023.6 1023.3 0.0
26/11:00pm 13.1 7.8 2.1 47 4.8 W 19 24 10 13 1023.5 1023.2 0.0
26/10:30pm 13.6 7.8 2.2 46 5.0 W 22 28 12 15 1023.4 1023.1 0.0
26/10:00pm 14.0 8.5 2.0 44 5.2 W 20 28 11 15 1023.2 1022.9 0.0
26/09:30pm 14.7 8.8 1.6 41 5.7 W 22 30 12 16 1022.9 1022.6 0.0
26/09:00pm 15.0 8.2 0.8 38 6.1 W 26 33 14 18 1022.7 1022.4 0.0
26/08:30pm 15.2 9.4 0.2 36 6.4 W 20 26 11 14 1022.2 1021.9 0.0
26/08:00pm 15.8 8.9 0.0 34 6.7 W 26 35 14 19 1021.9 1021.6 0.0
26/07:30pm 16.6 8.5 -0.6 31 7.3 W 32 44 17 24 1021.6 1021.3 0.0
26/07:11pm 17.3 9.4 -1.4 28 7.9 W 30 48 16 26 1021.2 1020.9 0.0
26/07:00pm 17.4 9.5 -1.8 27 8.0 W 30 41 16 22 1021.2 1020.9 0.0
26/06:30pm 18.1 8.9 -1.7 26 8.3 WSW 37 50 20 27 1020.9 1020.6 0.0
26/06:00pm 18.4 9.2 -1.4 26 8.4 W 37 54 20 29 1020.6 1020.3 0.0
26/05:30pm 19.2 9.9 -2.4 23 9.1 W 37 50 20 27 1020.5 1020.2 0.0
26/05:07pm 20.1 11.5 -2.3 22 9.5 W 33 52 18 28 1020.4 1020.1 0.0
26/05:00pm 19.0 10.5 -2.0 24 8.8 W 33 46 18 25 1020.5 1020.2 0.0
26/04:30pm 19.3 10.4 -2.3 23 9.1 W 35 52 19 28 1020.3 1020.0 0.0
26/04:25pm 19.5 11.2 -1.6 24 9.0 W 32 52 17 28 1020.4 1020.1 0.0
26/04:00pm 18.8 9.9 -2.2 24 8.8 W 35 52 19 28 1020.5 1020.2 0.0
26/03:56pm 19.4 10.9 -1.7 24 9.0 W 33 52 18 28 1020.4 1020.1 0.0
26/03:30pm 19.3 11.8 -1.7 24 8.9 W 28 44 15 24 1020.5 1020.2 0.0
26/03:03pm 18.8 9.9 -2.2 24 8.8 W 35 54 19 29 1020.7 1020.4 0.0
26/03:00pm 18.0 9.1 -2.3 25 8.4 W 35 50 19 27 1020.7 1020.4 0.0
26/02:53pm 18.7 10.3 -2.3 24 8.8 W 32 50 17 27 1020.6 1020.3 0.0
26/02:30pm 18.7 10.8 -1.7 25 8.6 W 30 44 16 24 1020.8 1020.5 0.0
26/02:00pm 17.6 9.4 -1.1 28 7.9 WSW 32 44 17 24 1021.3 1021.0 0.0
26/01:31pm 17.6 9.9 -0.2 30 7.7 W 30 48 16 26 1021.5 1021.2 0.0
26/01:30pm 17.1 9.0 -0.6 30 7.6 W 32 48 17 26 1021.5 1021.2 0.0
26/01:19pm 18.0 10.7 -0.3 29 7.9 W 28 46 15 25 1021.5 1021.2 0.0
26/01:00pm 17.4 9.4 0.1 31 7.5 W 32 43 17 23 1021.6 1021.3 0.0
26/12:33pm 16.8 8.7 -0.4 31 7.4 W 32 50 17 27 1021.8 1021.5 0.0
26/12:30pm 17.1 9.5 0.7 33 7.2 W 30 44 16 24 1021.8 1021.5 0.0
26/12:00pm 16.6 9.5 1.1 35 6.8 W 28 46 15 25 1022.0 1021.7 0.0
26/11:59am 16.2 9.2 1.9 38 6.4 W 28 46 15 25 1022.0 1021.7 0.0
26/11:30am 15.2 7.8 2.1 41 5.8 W 30 41 16 22 1022.3 1022.0 0.0
26/11:00am 15.0 8.0 1.9 41 5.8 W 28 35 15 19 1022.1 1021.8 0.0
26/10:30am 14.1 6.8 2.7 46 5.1 W 30 43 16 23 1022.0 1021.7 0.0
26/10:00am 13.4 6.3 3.8 52 4.3 W 30 41 16 22 1021.8 1021.5 0.0
26/09:30am 12.8 5.7 3.7 54 4.1 W 30 41 16 22 1021.5 1021.2 0.0
26/09:00am 11.7 6.1 5.3 65 3.0 W 24 33 13 18 1021.2 1020.9 0.0
26/08:30am 10.9 6.1 5.7 70 2.4 W 20 26 11 14 1020.8 1020.5 0.0
26/08:00am 9.9 5.9 5.1 72 2.2 W 15 19 8 10 1020.3 1020.0 0.0
26/07:30am 9.5 5.0 4.3 70 2.3 W 17 20 9 11 1019.9 1019.6 0.0
26/07:00am 10.6 5.5 4.1 64 2.9 W 20 32 11 17 1019.6 1019.3 0.0
26/06:30am 11.7 6.5 3.5 57 3.6 W 20 30 11 16 1019.2 1018.9 0.0
26/06:00am 12.1 6.9 3.6 56 3.8 WSW 20 28 11 15 1018.8 1018.5 0.0
26/05:30am 12.2 7.6 3.7 56 3.8 W 17 24 9 13 1018.5 1018.2 0.0
26/05:00am 12.2 6.7 3.9 57 3.7 WSW 22 28 12 15 1018.3 1018.0 0.0
26/04:30am 12.3 7.0 5.2 62 3.3 WSW 22 28 12 15 1018.0 1017.7 0.0
26/04:00am 11.7 7.9 5.8 67 2.8 WSW 15 20 8 11 1017.6 1017.3 0.0
26/03:30am 11.3 6.5 4.5 63 3.1 WSW 19 24 10 13 1017.6 1017.3 0.0
26/03:00am 12.0 5.8 1.9 50 4.3 WSW 24 33 13 18 1017.6 1017.3 0.0
26/02:42am 13.0 7.3 0.4 42 5.3 NW 20 41 11 22 1017.5 1017.2 0.0
26/02:30am 12.9 7.7 0.0 41 5.4 NNW 17 20 9 11 1016.8 1016.5 0.0
26/02:00am 12.8 8.0 0.2 42 5.2 NNW 15 19 8 10 1017.1 1016.8 0.0
26/01:30am 13.1 8.3 0.2 41 5.4 N 15 19 8 10 1017.1 1016.8 0.0
26/01:00am 12.8 8.8 0.5 43 5.2 N 11 15 6 8 1017.1 1016.8 0.0
26/12:30am 12.3 8.2 0.1 43 5.1 NNW 11 13 6 7 1017.2 1016.9 0.0
26/12:00am 12.8 8.4 0.2 42 5.2 NNW 13 15 7 8 1017.3 1017.0 0.0
 
Date/Time
EDT
Temp
°C
App
Temp
°C
Dew
Point
Rel
Hum
%
Delta-T
°C
Wind Press
QNH
hPa
Press
MSL
hPa
Rain
since 9 am
mm
Dir
 
Spd
km/h
Gust
km/h
Spd
kts
Gust
kts
25/11:30pm 12.6 8.5 -0.3 41 5.3 NNW 11 13 6 7 1017.3 1017.0 0.0
25/11:00pm 13.0 8.5 -0.3 40 5.5 NW 13 13 7 7 1017.4 1017.1 0.0
25/10:30pm 13.6 9.5 -0.4 38 5.8 NW 11 13 6 7 1017.3 1017.0 0.0
25/10:00pm 15.2 9.9 -0.5 34 6.6 WNW 17 20 9 11 1017.3 1017.0 0.0
25/09:30pm 15.2 10.7 -0.5 34 6.6 WNW 13 17 7 9 1017.2 1016.9 0.0
25/09:00pm 16.2 10.9 -0.9 31 7.2 W 17 22 9 12 1017.0 1016.7 0.0
25/08:30pm 16.9 11.1 -1.2 29 7.6 W 19 26 10 14 1016.8 1016.5 0.0
25/08:00pm 17.5 11.2 -1.2 28 7.9 W 22 30 12 16 1016.1 1015.8 0.0
25/07:30pm 18.5 12.2 -1.3 26 8.4 WNW 22 32 12 17 1015.4 1015.1 0.0
25/07:00pm 19.7 13.9 -0.3 26 8.8 WNW 20 26 11 14 1015.3 1015.0 0.0
25/06:30pm 20.8 15.2 1.1 27 9.0 WNW 20 30 11 16 1014.8 1014.5 0.0
25/06:00pm 21.7 16.0 0.8 25 9.5 WNW 20 33 11 18 1014.6 1014.3 0.0
25/05:30pm 22.5 16.9 1.5 25 9.8 WNW 20 32 11 17 1014.3 1014.0 0.0
25/05:00pm 22.6 17.3 2.1 26 9.7 WNW 19 28 10 15 1014.3 1014.0 0.0
25/04:30pm 22.3 18.4 3.4 29 9.1 NW 13 26 7 14 1014.5 1014.2 0.0
25/04:00pm 21.9 17.6 3.1 29 9.0 WNW 15 24 8 13 1014.7 1014.4 0.0
25/03:30pm 21.5 17.4 4.1 32 8.5 W 15 24 8 13 1014.9 1014.6 0.0
25/03:00pm 21.5 18.1 4.1 32 8.5 NW 11 20 6 11 1015.3 1015.0 0.0
25/02:30pm 21.4 17.4 4.9 34 8.1 NW 15 20 8 11 1015.6 1015.2 0.0
25/02:00pm 20.6 16.9 4.6 35 7.8 WNW 13 20 7 11 1016.2 1015.9 0.0
25/01:30pm 20.1 16.9 5.0 37 7.4 WSW 11 20 6 11 1016.7 1016.4 0.0
25/01:00pm 19.2 15.7 5.3 40 6.8 WSW 13 22 7 12 1017.1 1016.8 0.0
25/12:30pm 18.6 15.0 5.1 41 6.6 WSW 13 22 7 12 1017.6 1017.3 0.0
25/12:00pm 17.3 14.1 5.3 45 5.8 WSW 11 17 6 9 1017.9 1017.6 0.0
25/11:30am 16.7 13.7 5.9 49 5.3 SW 11 17 6 9 1018.2 1017.9 0.0
25/11:00am 15.1 11.9 5.3 52 4.6 SW 11 15 6 8 1018.6 1018.3 0.0
25/10:30am 14.5 11.0 5.3 54 4.4 SW 13 20 7 11 1018.3 1018.0 0.0
25/10:00am 13.3 10.2 5.5 59 3.7 SSW 11 17 6 9 1018.5 1018.2 0.0
25/09:30am 11.3 7.6 4.7 64 3.0 SW 13 19 7 10 1018.3 1018.0 0.0
25/09:00am 10.4 6.7 4.3 66 2.7 SSW 13 19 7 10 1018.0 1017.7 0.0
25/08:30am 9.0 5.6 3.8 70 2.3 SW 11 15 6 8 1018.3 1018.0 0.0
25/08:00am 7.9 4.1 3.8 75 1.8 WSW 13 17 7 9 1018.1 1017.8 0.0
25/07:30am 6.6 2.7 3.4 80 1.4 WSW 13 15 7 8 1017.6 1017.3 0.0
25/07:00am 7.0 2.4 3.6 79 1.4 WSW 17 20 9 11 1017.7 1017.4 0.0
25/06:30am 7.0 3.2 4.0 81 1.3 WSW 13 15 7 8 1017.1 1016.8 0.0
25/06:00am 7.0 3.2 4.1 82 1.3 W 13 15 7 8 1016.8 1016.5 0.0
25/05:30am 6.4 3.3 3.4 81 1.3 WSW 9 11 5 6 1016.5 1016.2 0.0
25/05:00am 6.9 3.4 3.3 78 1.5 WSW 11 13 6 7 1016.5 1016.2 0.0
25/04:30am 8.1 4.3 4.1 76 1.7 WSW 13 17 7 9 1016.9 1016.6 0.0
25/04:00am 8.4 4.3 4.4 76 1.8 WSW 15 17 8 9 1017.1 1016.8 0.0
25/03:30am 9.1 5.4 4.7 74 2.0 SSW 13 17 7 9 1016.4 1016.1 0.0
25/03:00am 9.7 4.9 4.7 71 2.2 SSW 19 22 10 12 1016.4 1016.1 0.0
25/02:30am 10.0 5.6 4.8 70 2.3 SW 17 22 9 12 1017.2 1016.9 0.0
25/02:00am 10.3 5.6 5.1 70 2.4 SW 19 22 10 12 1017.2 1016.9 0.0
25/01:30am 10.3 6.3 4.7 68 2.5 SW 15 19 8 10 1017.5 1017.2 0.0
25/01:00am 10.5 6.0 4.4 66 2.7 WSW 17 20 9 11 1017.9 1017.6 0.0
25/12:30am 11.4 6.4 4.6 63 3.1 SSW 20 24 11 13 1017.8 1017.5 0.0
25/12:00am 11.7 6.3 4.4 61 3.3 SW 22 28 12 15 1018.0 1017.7 0.0
 
Date/Time
EDT
Temp
°C
App
Temp
°C
Dew
Point
Rel
Hum
%
Delta-T
°C
Wind Press
QNH
hPa
Press
MSL
hPa
Rain
since 9 am
mm
Dir
 
Spd
km/h
Gust
km/h
Spd
kts
Gust
kts
24/11:30pm 12.3 7.3 4.5 59 3.6 SW 20 24 11 13 1018.5 1018.2 0.0
24/11:00pm 12.6 7.7 4.1 56 3.9 SW 19 24 10 13 1018.7 1018.4 0.0
24/10:30pm 12.8 8.7 4.3 56 3.9 SW 15 20 8 11 1018.6 1018.3 0.0
24/10:00pm 12.3 8.4 3.3 54 4.0 SW 13 19 7 10 1018.4 1018.1 0.0
24/09:30pm 13.3 8.6 3.1 50 4.6 SSW 17 24 9 13 1018.3 1018.0 0.0

Other Formats:

Comma delimited format used in spreadsheet applications
http://www.bom.gov.au/fwo/IDN60801/IDN60801.95869.axf

JavaScript Object Notation format (JSON) in row-major order
http://www.bom.gov.au/fwo/IDN60801/IDN60801.95869.json